| time (UTC) | temp C | wind direction | speed KPH | gust KPH | rain 1hr cm | rain 24hr cm | rain mn cm | humidity % | barometer mb |
| 20260505152921 | 15 | 298 | 4.8 | 24.1 | 0.00 | 0.46 | 0.43 | 74 | 1007.7 |
| 20260505152918 | 15 | 298 | 4.8 | 24.1 | 0.00 | 0.46 | 0.43 | 74 | 1007.7 |
| 20260505152418 | 15 | 236 | 20.9 | 20.9 | 0.00 | 0.46 | 0.43 | 75 | 1007.6 |
| 20260505151918 | 15 | 240 | 9.7 | 14.5 | 0.00 | 0.46 | 0.43 | 78 | 1007.6 |
| 20260505151421 | 15 | 260 | 3.2 | 16.1 | 0.00 | 0.46 | 0.43 | 76 | 1007.7 |
| 20260505151418 | 15 | 260 | 3.2 | 16.1 | 0.00 | 0.46 | 0.43 | 76 | 1007.7 |
| 20260505150918 | 16 | 251 | 14.5 | 17.7 | 0.00 | 0.46 | 0.43 | 75 | 1007.7 |
| 20260505150418 | 16 | 248 | 8.0 | 17.7 | 0.00 | 0.46 | 0.43 | 73 | 1007.7 |
| 20260505140418 | 15 | 248 | 8.0 | 17.7 | 0.00 | 0.46 | 0.43 | 83 | 1007.8 |
| 20260505124918 | 12 | 182 | 6.4 | 17.7 | 0.20 | 0.41 | 0.38 | 97 | 1008.6 |
| 20260505124422 | 13 | 216 | 4.8 | 12.9 | 0.20 | 0.41 | 0.38 | 97 | 1008.6 |
| 20260505124418 | 13 | 216 | 4.8 | 12.9 | 0.20 | 0.41 | 0.38 | 97 | 1008.6 |
| 20260505123918 | 13 | 222 | 8.0 | 14.5 | 0.18 | 0.38 | 0.36 | 96 | 1008.6 |
| 20260505123418 | 13 | 243 | 8.0 | 11.3 | 0.15 | 0.36 | 0.33 | 95 | 1008.6 |
| 20260505122922 | 13 | 240 | 3.2 | 16.1 | 0.13 | 0.33 | 0.30 | 94 | 1008.6 |
| 20260505122918 | 13 | 240 | 3.2 | 16.1 | 0.13 | 0.33 | 0.30 | 94 | 1008.6 |
| 20260505122418 | 13 | 254 | 3.2 | 16.1 | 0.08 | 0.28 | 0.25 | 92 | 1008.6 |
| 20260505121918 | 13 | 255 | 16.1 | 16.1 | 0.05 | 0.25 | 0.23 | 91 | 1008.6 |
| 20260505121422 | 13 | 277 | 14.5 | 22.5 | 0.05 | 0.23 | 0.20 | 88 | 1008.6 |
| 20260505121418 | 13 | 277 | 14.5 | 22.5 | 0.05 | 0.23 | 0.20 | 88 | 1008.6 |
| 20260505120918 | 14 | 278 | 14.5 | 19.3 | 0.03 | 0.20 | 0.18 | 85 | 1008.6 |
| 20260505120418 | 14 | 272 | 9.7 | 16.1 | 0.03 | 0.20 | 0.18 | 82 | 1008.5 |
| 20260505115921 | 15 | 298 | 3.2 | 12.9 | 0.03 | 0.20 | 0.18 | 80 | 1008.4 |
| 20260505115918 | 15 | 298 | 3.2 | 12.9 | 0.03 | 0.20 | 0.18 | 80 | 1008.4 |
| 20260505115418 | 15 | 299 | 6.4 | 11.3 | 0.03 | 0.20 | 0.18 | 78 | 1008.3 |
| 20260505114918 | 15 | 284 | 3.2 | 9.7 | 0.03 | 0.20 | 0.18 | 77 | 1008.3 |
| 20260505114421 | 15 | 303 | 0.0 | 8.0 | 0.03 | 0.20 | 0.18 | 80 | 1008.3 |
| 20260505114418 | 15 | 303 | 0.0 | 8.0 | 0.03 | 0.20 | 0.18 | 80 | 1008.3 |
| 20260505113918 | 15 | 285 | 4.8 | 8.0 | 0.03 | 0.20 | 0.18 | 82 | 1008.2 |
| 20260505113418 | 14 | 267 | 4.8 | 12.9 | 0.03 | 0.20 | 0.18 | 81 | 1008.3 |
| 20260505112921 | 14 | 253 | 6.4 | 14.5 | 0.03 | 0.20 | 0.18 | 83 | 1008.3 |
| 20260505112918 | 14 | 253 | 6.4 | 14.5 | 0.03 | 0.20 | 0.18 | 83 | 1008.3 |
| 20260505112419 | 14 | 243 | 1.6 | 9.7 | 0.03 | 0.20 | 0.18 | 84 | 1008.4 |
| 20260505111919 | 14 | 160 | 6.4 | 12.9 | 0.00 | 0.00 | 0.00 | ||
| 20260505111418 | 14 | 296 | 0.0 | 6.4 | 0.00 | 0.18 | 0.15 | 84 | 1008.4 |
| 20260505110918 | 15 | 295 | 4.8 | 8.0 | 0.00 | 0.18 | 0.15 | 83 | 1008.3 |
| 20260505110418 | 15 | 312 | 4.8 | 8.0 | 0.00 | 0.18 | 0.15 | 79 | 1008.3 |
| 20260505101918 | 14 | 241 | 6.4 | 9.7 | 0.00 | 0.18 | 0.15 | 83 | 1008.6 |
| 20260505101418 | 14 | 161 | 3.2 | 9.7 | 0.00 | 0.18 | 0.15 | 85 | 1008.6 |
| 20260505100919 | 14 | 109 | 0.0 | 0.0 | 0.00 | 0.18 | 0.15 | 87 | 1008.6 |
| 20260505100418 | 13 | 109 | 0.0 | 0.0 | 0.00 | 0.18 | 0.15 | 87 | 1008.6 |
| 20260505095921 | 13 | 109 | 0.0 | 0.0 | 0.00 | 0.18 | 0.15 | 88 | 1008.6 |
| 20260505095919 | 13 | 109 | 0.0 | 0.0 | 0.00 | 0.18 | 0.15 | 88 | 1008.6 |
| 20260505095418 | 13 | 109 | 0.0 | 0.0 | 0.00 | 0.18 | 0.15 | 89 | 1008.7 |
| 20260505094918 | 13 | 109 | 0.0 | 4.8 | 0.00 | 0.18 | 0.15 | 89 | 1008.7 |
| 20260505094423 | 13 | 106 | 0.0 | 4.8 | 0.00 | 0.18 | 0.15 | 91 | 1008.7 |
| 20260505094418 | 13 | 106 | 0.0 | 4.8 | 0.00 | 0.18 | 0.15 | 91 | 1008.7 |
| 20260505093919 | 13 | 102 | 0.0 | 4.8 | 0.00 | 0.18 | 0.15 | 91 | 1008.7 |
| 20260505093419 | 13 | 97 | 0.0 | 0.0 | 0.00 | 0.18 | 0.15 | 93 | 1008.7 |
| 20260505092919 | 13 | 122 | 0.0 | 3.2 | 0.00 | 0.18 | 0.15 | 93 | 1008.7 |
| 20260505092420 | 13 | 7 | 0.0 | 0.0 | 0.00 | 0.18 | 0.15 | 95 | 1008.7 |
| 20260505091919 | 12 | 7 | 0.0 | 0.0 | 0.00 | 0.18 | 0.15 | 95 | 1008.7 |
| 20260505091422 | 12 | 7 | 0.0 | 0.0 | 0.00 | 0.18 | 0.15 | 95 | 1008.7 |
| 20260505091419 | 12 | 7 | 0.0 | 0.0 | 0.00 | 0.18 | 0.15 | 95 | 1008.7 |
| 20260505090919 | 12 | 7 | 0.0 | 0.0 | 0.00 | 0.18 | 0.15 | 95 | 1008.7 |
| 20260505090419 | 12 | 7 | 0.0 | 0.0 | 0.00 | 0.18 | 0.15 | 96 | 1008.7 |
| 20260505085919 | 12 | 7 | 0.0 | 3.2 | 0.00 | 0.18 | 0.15 | 97 | 1008.7 |
| 20260505085419 | 12 | 358 | 0.0 | 8.0 | 0.00 | 0.18 | 0.15 | 97 | 1008.7 |
| 20260505084919 | 12 | 326 | 6.4 | 11.3 | 0.00 | 0.18 | 0.15 | 97 | 1008.6 |
| 20260505084423 | 12 | 331 | 8.0 | 8.0 | 0.00 | 0.18 | 0.15 | 98 | 1008.6 |
| 20260505084419 | 12 | 331 | 8.0 | 8.0 | 0.00 | 0.18 | 0.15 | 98 | 1008.6 |
| 20260505083919 | 12 | 354 | 1.6 | 11.3 | 0.00 | 0.18 | 0.15 | 98 | 1008.6 |
| 20260505083419 | 12 | 25 | 0.0 | 8.0 | 0.00 | 0.18 | 0.15 | 98 | 1008.6 |
| 20260505082919 | 11 | 329 | 4.8 | 8.0 | 0.00 | 0.18 | 0.15 | 98 | 1008.5 |
| 20260505082419 | 11 | 348 | 6.4 | 9.7 | 0.00 | 0.18 | 0.15 | 98 | 1008.6 |
| 20260505081919 | 11 | 343 | 4.8 | 11.3 | 0.00 | 0.18 | 0.15 | 98 | 1008.6 |
| 20260505081419 | 11 | 15 | 4.8 | 6.4 | 0.00 | 0.18 | 0.15 | 97 | 1008.7 |
| 20260505080919 | 11 | 8 | 0.0 | 8.0 | 0.00 | 0.18 | 0.15 | 97 | 1008.6 |
| 20260505080419 | 12 | 36 | 0.0 | 3.2 | 0.00 | 0.18 | 0.15 | 97 | 1008.7 |
| 20260505075922 | 12 | 9 | 0.0 | 4.8 | 0.00 | 0.18 | 0.15 | 98 | 1008.7 |
| 20260505075919 | 12 | 9 | 0.0 | 4.8 | 0.00 | 0.18 | 0.15 | 98 | 1008.7 |
| 20260505075419 | 12 | 23 | 0.0 | 4.8 | 0.00 | 0.18 | 0.15 | 98 | 1008.6 |
| 20260505074919 | 12 | 19 | 0.0 | 4.8 | 0.03 | 0.18 | 0.15 | 98 | 1008.7 |
| 20260505074422 | 12 | 351 | 0.0 | 4.8 | 0.03 | 0.18 | 0.15 | 96 | 1008.8 |
| 20260505074419 | 12 | 351 | 0.0 | 4.8 | 0.03 | 0.18 | 0.15 | 96 | 1008.8 |
| 20260505073919 | 12 | 8 | 0.0 | 6.4 | 0.03 | 0.18 | 0.15 | 95 | 1008.9 |
| 20260505073419 | 12 | 215 | 0.0 | 0.0 | 0.03 | 0.18 | 0.15 | 94 | 1008.9 |
| 20260505072919 | 12 | 215 | 0.0 | 0.0 | 0.03 | 0.18 | 0.15 | 93 | 1009.0 |
| 20260505072419 | 12 | 215 | 0.0 | 0.0 | 0.03 | 0.18 | 0.15 | 94 | 1009.0 |
| 20260505071919 | 12 | 215 | 0.0 | 0.0 | 0.03 | 0.18 | 0.15 | 94 | 1009.1 |
| 20260505071419 | 11 | 215 | 0.0 | 0.0 | 0.03 | 0.18 | 0.15 | 95 | 1009.1 |
| 20260505070919 | 11 | 215 | 0.0 | 0.0 | 0.03 | 0.18 | 0.15 | 96 | 1009.2 |
| 20260505070419 | 11 | 215 | 0.0 | 0.0 | 0.03 | 0.18 | 0.15 | 96 | 1009.2 |
| 20260505065922 | 11 | 215 | 0.0 | 0.0 | 0.03 | 0.18 | 0.15 | 97 | 1009.3 |
| 20260505065919 | 11 | 215 | 0.0 | 0.0 | 0.03 | 0.18 | 0.15 | 97 | 1009.3 |
| 20260505065419 | 11 | 215 | 0.0 | 0.0 | 0.03 | 0.18 | 0.15 | 97 | 1009.3 |
| 20260505064919 | 11 | 215 | 0.0 | 0.0 | 0.00 | 0.15 | 0.13 | 97 | 1009.3 |
| 20260505064422 | 11 | 215 | 0.0 | 0.0 | 0.00 | 0.15 | 0.13 | 97 | 1009.4 |
| 20260505064419 | 11 | 215 | 0.0 | 0.0 | 0.00 | 0.15 | 0.13 | 97 | 1009.4 |
| 20260505063919 | 11 | 215 | 0.0 | 0.0 | 0.00 | 0.15 | 0.13 | 97 | 1009.5 |
| 20260505063419 | 11 | 215 | 0.0 | 0.0 | 0.00 | 0.15 | 0.13 | 97 | 1009.6 |
| 20260505062919 | 11 | 215 | 0.0 | 0.0 | 0.00 | 0.15 | 0.13 | 97 | 1009.6 |
| 20260505062419 | 11 | 215 | 0.0 | 0.0 | 0.00 | 0.15 | 0.13 | 98 | 1009.6 |
| 20260505061919 | 11 | 215 | 0.0 | 0.0 | 0.00 | 0.15 | 0.13 | 98 | 1009.8 |
| 20260505061419 | 11 | 215 | 0.0 | 0.0 | 0.00 | 0.15 | 0.13 | 98 | 1009.8 |
| 20260505060919 | 11 | 215 | 0.0 | 0.0 | 0.03 | 0.15 | 0.13 | 98 | 1009.8 |
| 20260505060419 | 11 | 215 | 0.0 | 0.0 | 0.03 | 0.15 | 0.13 | 98 | 1009.8 |
| 20260505055923 | 11 | 215 | 0.0 | 0.0 | 0.03 | 0.15 | 0.13 | 98 | 1009.8 |
| 20260505055919 | 11 | 215 | 0.0 | 0.0 | 0.03 | 0.15 | 0.13 | 98 | 1009.8 |
| 20260505055419 | 10 | 215 | 0.0 | 0.0 | 0.03 | 0.15 | 0.13 | 98 | 1009.8 |
| 20260505054919 | 10 | 215 | 0.0 | 0.0 | 0.03 | 0.15 | 0.13 | 98 | 1009.8 |
| 20260505054422 | 10 | 215 | 0.0 | 0.0 | 0.03 | 0.15 | 0.13 | 98 | 1009.8 |
| 20260505054419 | 10 | 215 | 0.0 | 0.0 | 0.03 | 0.15 | 0.13 | 98 | 1009.8 |
| 20260505053919 | 10 | 215 | 0.0 | 0.0 | 0.03 | 0.15 | 0.13 | 98 | 1009.8 |
| 20260505053419 | 10 | 215 | 0.0 | 0.0 | 0.05 | 0.15 | 0.13 | 98 | 1009.9 |
| 20260505052922 | 10 | 215 | 0.0 | 0.0 | 0.05 | 0.15 | 0.13 | 98 | 1009.9 |
| 20260505052919 | 10 | 215 | 0.0 | 0.0 | 0.05 | 0.15 | 0.13 | 98 | 1009.9 |
| 20260505052419 | 10 | 215 | 0.0 | 0.0 | 0.08 | 0.15 | 0.13 | 98 | 1009.9 |
| 20260505051919 | 10 | 215 | 0.0 | 0.0 | 0.08 | 0.15 | 0.13 | 98 | 1009.8 |
| 20260505051422 | 10 | 215 | 0.0 | 0.0 | 0.08 | 0.15 | 0.13 | 98 | 1009.8 |
| 20260505051420 | 10 | 215 | 0.0 | 0.0 | 0.08 | 0.15 | 0.13 | 98 | 1009.8 |
| 20260505050919 | 10 | 215 | 0.0 | 0.0 | 0.05 | 0.13 | 0.10 | 98 | 1009.8 |
| 20260505050419 | 10 | 215 | 0.0 | 0.0 | 0.08 | 0.13 | 0.10 | 98 | 1009.9 |
| 20260505041423 | 10 | 206 | 1.6 | 6.4 | 0.05 | 0.08 | 0.05 | 97 | 1010.2 |
| 20260505041419 | 10 | 206 | 1.6 | 6.4 | 0.05 | 0.08 | 0.05 | 97 | 1010.2 |
| 20260505040919 | 10 | 203 | 1.6 | 3.2 | 0.05 | 0.08 | 0.05 | 97 | 1010.3 |
| 20260505040419 | 10 | 251 | 1.6 | 3.2 | 0.03 | 0.05 | 0.03 | 97 | 1010.3 |
| 20260505035922 | 10 | 244 | 1.6 | 6.4 | 0.03 | 0.05 | 0.03 | 97 | 1010.3 |
| 20260505035919 | 10 | 244 | 1.6 | 6.4 | 0.03 | 0.05 | 0.03 | 97 | 1010.3 |
| 20260505035419 | 10 | 236 | 3.2 | 6.4 | 0.03 | 0.05 | 0.03 | 96 | 1010.3 |
| 20260505034919 | 10 | 251 | 3.2 | 8.0 | 0.03 | 0.05 | 0.03 | 96 | 1010.3 |
| 20260505034419 | 10 | 270 | 1.6 | 8.0 | 0.03 | 0.05 | 0.03 | 96 | 1010.3 |
| 20260505033919 | 10 | 255 | 3.2 | 9.7 | 0.00 | 0.03 | 0.00 | 96 | 1010.3 |
| 20260505033419 | 10 | 225 | 3.2 | 12.9 | 0.00 | 0.03 | 0.00 | 95 | 1010.3 |
| 20260505032919 | 10 | 246 | 12.9 | 12.9 | 0.00 | 0.03 | 0.00 | 95 | 1010.2 |
| 20260505032419 | 10 | 233 | 4.8 | 11.3 | 0.00 | 0.03 | 0.00 | 95 | 1010.2 |
| 20260505031919 | 10 | 216 | 6.4 | 12.9 | 0.00 | 0.03 | 0.00 | 95 | 1010.3 |
| 20260505031419 | 10 | 292 | 8.0 | 12.9 | 0.00 | 0.03 | 0.00 | 96 | 1010.3 |
| 20260505030919 | 10 | 247 | 6.4 | 11.3 | 0.00 | 0.03 | 0.00 | 96 | 1010.3 |
| 20260505030419 | 10 | 248 | 4.8 | 12.9 | 0.00 | 0.03 | 0.00 | 97 | 1010.4 |
| 20260505025919 | 10 | 254 | 6.4 | 14.5 | 0.00 | 0.03 | 0.00 | 97 | 1010.5 |
| 20260505025419 | 10 | 260 | 4.8 | 11.3 | 0.00 | 0.03 | 0.00 | 98 | 1010.5 |
| 20260505024919 | 10 | 254 | 4.8 | 12.9 | 0.00 | 0.03 | 0.00 | 98 | 1010.5 |
| 20260505024419 | 10 | 270 | 3.2 | 11.3 | 0.00 | 0.03 | 0.00 | 97 | 1010.5 |
| 20260505023919 | 10 | 254 | 3.2 | 9.7 | 0.00 | 0.03 | 0.00 | 96 | 1010.5 |
| 20260505023419 | 10 | 260 | 6.4 | 8.0 | 0.00 | 0.03 | 0.00 | 96 | 1010.6 |
| 20260505022919 | 10 | 213 | 0.0 | 8.0 | 0.00 | 0.03 | 0.00 | 95 | 1010.5 |
| 20260505022419 | 10 | 253 | 6.4 | 8.0 | 0.00 | 0.03 | 0.00 | 93 | 1010.6 |
| 20260505021919 | 10 | 243 | 4.8 | 6.4 | 0.00 | 0.03 | 0.00 | 92 | 1010.6 |
| 20260505021419 | 10 | 237 | 3.2 | 4.8 | 0.00 | 0.03 | 0.00 | 92 | 1010.6 |
| 20260505020919 | 10 | 0 | 0.0 | 0.0 | 0.00 | 0.03 | 0.00 | 91 | 1010.6 |
| 20260505020420 | 10 | 0 | 0.0 | 0.0 | 0.00 | 0.03 | 0.00 | 91 | 1010.5 |
| 20260505015920 | 10 | 0 | 0.0 | 0.0 | 0.00 | 0.03 | 0.00 | 91 | 1010.5 |
| 20260505015420 | 10 | 0 | 0.0 | 0.0 | 0.00 | 0.03 | 0.00 | 91 | 1010.4 |
| 20260505014920 | 10 | 0 | 0.0 | 0.0 | 0.00 | 0.03 | 0.00 | 91 | 1010.5 |
| 20260505014420 | 10 | 0 | 0.0 | 0.0 | 0.00 | 0.03 | 0.00 | 91 | 1010.5 |
| 20260505013920 | 10 | 0 | 0.0 | 0.0 | 0.00 | 0.03 | 0.00 | 91 | 1010.5 |
| 20260505013420 | 10 | 0 | 0.0 | 0.0 | 0.00 | 0.03 | 0.00 | 90 | 1010.5 |
| 20260505012920 | 10 | 0 | 0.0 | 0.0 | 0.00 | 0.03 | 0.00 | 90 | 1010.5 |
| 20260505012420 | 10 | 0 | 0.0 | 0.0 | 0.00 | 0.03 | 0.00 | 90 | 1010.5 |
| 20260505011920 | 10 | 0 | 0.0 | 0.0 | 0.00 | 0.03 | 0.00 | 90 | 1010.5 |
| 20260505011420 | 10 | 0 | 0.0 | 0.0 | 0.00 | 0.03 | 0.00 | 89 | 1010.5 |
| 20260505010920 | 10 | 0 | 0.0 | 0.0 | 0.00 | 0.03 | 0.00 | 89 | 1010.6 |
| 20260505010420 | 10 | 0 | 0.0 | 0.0 | 0.00 | 0.03 | 0.00 | 89 | 1010.6 |
| 20260505010050 | 10 | 0 | 0.0 | 0.0 | 0.00 | 0.03 | 0.00 | 89 | 1010.8 |
| 20260505005920 | 10 | 0 | 0.0 | 0.0 | 0.00 | 0.03 | 0.00 | 89 | 1010.8 |
| 20260505005420 | 10 | 0 | 0.0 | 0.0 | 0.00 | 0.03 | 0.00 | 89 | 1010.8 |
| 20260505004920 | 10 | 0 | 0.0 | 3.2 | 0.00 | 0.03 | 0.00 | 88 | 1010.7 |
| 20260505004420 | 10 | 239 | 0.0 | 0.0 | 0.00 | 0.03 | 0.00 | 88 | 1010.8 |
| 20260505003920 | 10 | 239 | 0.0 | 0.0 | 0.00 | 0.03 | 0.00 | 87 | 1011.0 |
| 20260505003420 | 10 | 239 | 0.0 | 0.0 | 0.00 | 0.03 | 0.00 | 84 | 1011.1 |
| 20260505002920 | 11 | 239 | 0.0 | 0.0 | 0.00 | 0.03 | 0.00 | 82 | 1011.1 |
| 20260505002420 | 11 | 239 | 0.0 | 1.6 | 0.00 | 0.03 | 0.00 | 82 | 1011.1 |
| 20260505001920 | 11 | 210 | 1.6 | 3.2 | 0.00 | 0.03 | 0.00 | 81 | 1011.1 |
| 20260505001420 | 11 | 260 | 1.6 | 1.6 | 0.00 | 0.03 | 0.00 | 80 | 1011.0 |
| 20260505000920 | 11 | 2 | 0.0 | 0.0 | 0.00 | 0.03 | 0.00 | 80 | 1011.1 |
| 20260505000420 | 11 | 2 | 0.0 | 1.6 | 0.00 | 0.03 | 0.00 | 80 | 1011.2 |
| 20260504235920 | 11 | 2 | 0.0 | 0.0 | 0.00 | 0.03 | 0.00 | 81 | 1011.2 |
| 20260504235420 | 11 | 2 | 0.0 | 0.0 | 0.00 | 0.03 | 0.00 | 81 | 1011.3 |
| 20260504234920 | 11 | 2 | 0.0 | 0.0 | 0.00 | 0.03 | 0.00 | 80 | 1011.2 |
| 20260504234420 | 11 | 2 | 0.0 | 0.0 | 0.00 | 0.03 | 0.00 | 80 | 1011.2 |
| 20260504233920 | 11 | 2 | 0.0 | 0.0 | 0.00 | 0.03 | 0.00 | 80 | 1011.3 |
| 20260504233420 | 11 | 341 | 0.0 | 1.6 | 0.00 | 0.03 | 0.00 | 80 | 1011.2 |
| 20260504232920 | 11 | 336 | 0.0 | 0.0 | 0.00 | 0.03 | 0.00 | 81 | 1011.3 |
| 20260504232420 | 11 | 336 | 0.0 | 0.0 | 0.00 | 0.03 | 0.00 | 81 | 1011.3 |
| 20260504231920 | 11 | 343 | 0.0 | 1.6 | 0.00 | 0.03 | 0.00 | 81 | 1011.4 |
| 20260504231420 | 11 | 357 | 0.0 | 0.0 | 0.00 | 0.03 | 0.00 | 81 | 1011.4 |
| 20260504230920 | 11 | 357 | 0.0 | 1.6 | 0.00 | 0.03 | 0.00 | 81 | 1011.4 |
| 20260504230420 | 11 | 338 | 0.0 | 0.0 | 0.00 | 0.03 | 0.00 | 82 | 1011.6 |
| 20260504225920 | 11 | 338 | 0.0 | 0.0 | 0.00 | 0.03 | 0.00 | 82 | 1011.6 |
| 20260504225420 | 11 | 338 | 0.0 | 1.6 | 0.00 | 0.03 | 0.00 | 81 | 1011.7 |
| 20260504224920 | 11 | 15 | 0.0 | 0.0 | 0.00 | 0.03 | 0.00 | 82 | 1011.7 |
| 20260504224420 | 11 | 15 | 0.0 | 1.6 | 0.00 | 0.03 | 0.00 | 81 | 1011.7 |
| 20260504223920 | 11 | 336 | 1.6 | 1.6 | 0.00 | 0.03 | 0.00 | 81 | 1011.7 |
| 20260504223420 | 10 | 358 | 0.0 | 0.0 | 0.00 | 0.03 | 0.00 | 81 | 1011.7 |
| 20260504222920 | 11 | 347 | 0.0 | 0.0 | 0.00 | 0.03 | 0.00 | 82 | 1011.7 |
| 20260504222420 | 10 | 322 | 0.0 | 1.6 | 0.00 | 0.03 | 0.00 | 83 | 1011.7 |
| 20260504221920 | 10 | 357 | 0.0 | 0.0 | 0.00 | 0.03 | 0.00 | 83 | 1011.8 |
| 20260504221424 | 10 | 357 | 0.0 | 0.0 | 0.00 | 0.03 | 0.00 | 83 | 1011.8 |
| 20260504221420 | 10 | 357 | 0.0 | 0.0 | 0.00 | 0.03 | 0.00 | 83 | 1011.8 |
| 20260504220920 | 11 | 357 | 0.0 | 0.0 | 0.00 | 0.03 | 0.00 | 83 | 1011.9 |
| 20260504220420 | 10 | 357 | 0.0 | 0.0 | 0.00 | 0.03 | 0.00 | 83 | 1011.9 |
| 20260504215923 | 10 | 357 | 0.0 | 0.0 | 0.00 | 0.03 | 0.00 | 84 | 1011.9 |
| 20260504215920 | 10 | 357 | 0.0 | 0.0 | 0.00 | 0.03 | 0.00 | 84 | 1011.9 |
| 20260504215420 | 10 | 357 | 0.0 | 0.0 | 0.00 | 0.03 | 0.03 | 84 | 1012.0 |
| 20260504214920 | 10 | 357 | 0.0 | 0.0 | 0.00 | 0.03 | 0.03 | 84 | 1012.0 |
| 20260504214420 | 10 | 333 | 0.0 | 0.0 | 0.00 | 0.03 | 0.03 | 86 | 1012.1 |
| 20260504213920 | 10 | 333 | 0.0 | 0.0 | 0.00 | 0.03 | 0.03 | 88 | 1012.1 |
| 20260504213420 | 10 | 333 | 0.0 | 0.0 | 0.00 | 0.03 | 0.03 | 90 | 1012.2 |
| 20260504212920 | 10 | 333 | 0.0 | 3.2 | 0.00 | 0.03 | 0.03 | 90 | 1012.3 |
| 20260504212420 | 10 | 343 | 1.6 | 4.8 | 0.00 | 0.03 | 0.03 | 91 | 1012.2 |
| 20260504211920 | 10 | 333 | 3.2 | 3.2 | 0.00 | 0.03 | 0.03 | 90 | 1012.3 |
| 20260504211424 | 10 | 316 | 0.0 | 0.0 | 0.00 | 0.03 | 0.03 | 90 | 1012.3 |
| 20260504211420 | 10 | 316 | 0.0 | 0.0 | 0.00 | 0.03 | 0.03 | 90 | 1012.3 |
| 20260504210920 | 10 | 316 | 0.0 | 0.0 | 0.00 | 0.03 | 0.03 | 91 | 1012.4 |
| 20260504210420 | 10 | 316 | 0.0 | 0.0 | 0.00 | 0.03 | 0.03 | 91 | 1012.4 |
| 20260504205924 | 10 | 316 | 0.0 | 3.2 | 0.00 | 0.03 | 0.03 | 89 | 1012.5 |
| 20260504205920 | 10 | 316 | 0.0 | 3.2 | 0.00 | 0.03 | 0.03 | 89 | 1012.5 |
| 20260504205420 | 11 | 341 | 0.0 | 0.0 | 0.00 | 0.03 | 0.03 | 89 | 1012.6 |
| 20260504204920 | 11 | 341 | 0.0 | 3.2 | 0.00 | 0.03 | 0.03 | 89 | 1012.6 |
| 20260504204425 | 11 | 352 | 1.6 | 4.8 | 0.00 | 0.03 | 0.03 | 89 | 1012.6 |
| 20260504204420 | 11 | 352 | 1.6 | 4.8 | 0.00 | 0.03 | 0.03 | 89 | 1012.6 |
| 20260504203920 | 11 | 333 | 3.2 | 6.4 | 0.00 | 0.03 | 0.03 | 89 | 1012.5 |
| 20260504203420 | 11 | 324 | 4.8 | 6.4 | 0.00 | 0.03 | 0.03 | 89 | 1012.5 |
| 20260504202920 | 11 | 326 | 4.8 | 4.8 | 0.00 | 0.03 | 0.03 | 90 | 1012.5 |
| 20260504202420 | 11 | 331 | 1.6 | 1.6 | 0.00 | 0.03 | 0.03 | 91 | 1012.6 |
| 20260504201920 | 11 | 333 | 0.0 | 0.0 | 0.00 | 0.03 | 0.03 | 91 | 1012.6 |
| 20260504201420 | 11 | 333 | 0.0 | 0.0 | 0.00 | 0.03 | 0.03 | 92 | 1012.7 |
| 20260504200920 | 11 | 333 | 0.0 | 0.0 | 0.00 | 0.03 | 0.03 | 94 | 1012.7 |
| 20260504200420 | 11 | 333 | 0.0 | 0.0 | 0.00 | 0.03 | 0.03 | 95 | 1012.7 |
| 20260504195920 | 11 | 333 | 0.0 | 4.8 | 0.00 | 0.03 | 0.03 | 95 | 1012.7 |
| 20260504195420 | 11 | 341 | 3.2 | 4.8 | 0.00 | 0.03 | 0.03 | 96 | 1012.6 |
| 20260504194920 | 11 | 350 | 0.0 | 4.8 | 0.00 | 0.03 | 0.03 | 96 | 1012.6 |
| 20260504194424 | 11 | 2 | 0.0 | 0.0 | 0.00 | 0.03 | 0.03 | 96 | 1012.5 |
| 20260504194420 | 11 | 2 | 0.0 | 0.0 | 0.00 | 0.03 | 0.03 | 96 | 1012.5 |
| 20260504193920 | 12 | 2 | 0.0 | 0.0 | 0.00 | 0.03 | 0.03 | 97 | 1012.5 |
| 20260504193420 | 12 | 2 | 0.0 | 0.0 | 0.00 | 0.03 | 0.03 | 97 | 1012.5 |
| 20260504192920 | 12 | 2 | 0.0 | 0.0 | 0.00 | 0.03 | 0.03 | 97 | 1012.4 |
| 20260504192420 | 11 | 2 | 0.0 | 4.8 | 0.00 | 0.03 | 0.03 | 96 | 1012.3 |
| 20260504191920 | 11 | 340 | 1.6 | 3.2 | 0.00 | 0.03 | 0.03 | 96 | 1012.3 |
| 20260504191424 | 12 | 331 | 0.0 | 6.4 | 0.00 | 0.03 | 0.03 | 96 | 1012.3 |
| 20260504191420 | 12 | 331 | 0.0 | 6.4 | 0.00 | 0.03 | 0.03 | 96 | 1012.3 |
| 20260504190920 | 12 | 336 | 4.8 | 6.4 | 0.00 | 0.03 | 0.03 | 96 | 1012.2 |
| 20260504190420 | 12 | 343 | 3.2 | 3.2 | 0.00 | 0.03 | 0.03 | 96 | 1012.2 |
| 20260504185920 | 12 | 347 | 0.0 | 0.0 | 0.00 | 0.03 | 0.03 | 94 | 1012.2 |
| 20260504185420 | 12 | 334 | 0.0 | 0.0 | 0.00 | 0.03 | 0.03 | 93 | 1012.3 |
| 20260504184920 | 12 | 334 | 0.0 | 0.0 | 0.00 | 0.03 | 0.03 | 92 | 1012.3 |
| 20260504184424 | 12 | 334 | 0.0 | 0.0 | 0.00 | 0.03 | 0.03 | 89 | 1012.4 |
| 20260504184420 | 12 | 334 | 0.0 | 0.0 | 0.00 | 0.03 | 0.03 | 89 | 1012.4 |
| 20260504183920 | 12 | 334 | 0.0 | 0.0 | 0.00 | 0.03 | 0.03 | 89 | 1012.4 |
| 20260504183420 | 12 | 334 | 0.0 | 1.6 | 0.00 | 0.03 | 0.03 | 89 | 1012.3 |
| 20260504182923 | 12 | 0 | 0.0 | 0.0 | 0.00 | 0.03 | 0.03 | 89 | 1012.4 |
| 20260504182921 | 12 | 0 | 0.0 | 0.0 | 0.00 | 0.03 | 0.03 | 89 | 1012.4 |
| 20260504182421 | 12 | 0 | 0.0 | 0.0 | 0.00 | 0.03 | 0.03 | 88 | 1012.4 |
| 20260504181921 | 12 | 0 | 0.0 | 4.8 | 0.00 | 0.03 | 0.03 | 88 | 1012.4 |
| 20260504181424 | 12 | 312 | 3.2 | 9.7 | 0.00 | 0.03 | 0.03 | 87 | 1012.5 |
| 20260504181421 | 12 | 312 | 3.2 | 9.7 | 0.00 | 0.03 | 0.03 | 87 | 1012.5 |
| 20260504180921 | 13 | 306 | 3.2 | 4.8 | 0.00 | 0.03 | 0.03 | 80 | 1012.6 |
| 20260504180421 | 13 | 286 | 0.0 | 4.8 | 0.00 | 0.03 | 0.03 | 80 | 1012.5 |
| 20260504175924 | 13 | 295 | 3.2 | 8.0 | 0.00 | 0.03 | 0.03 | 80 | 1012.5 |
| 20260504175921 | 13 | 295 | 3.2 | 8.0 | 0.00 | 0.03 | 0.03 | 80 | 1012.5 |
| 20260504175421 | 13 | 317 | 1.6 | 6.4 | 0.00 | 0.03 | 0.03 | 78 | 1012.4 |
| 20260504174921 | 13 | 306 | 3.2 | 6.4 | 0.00 | 0.03 | 0.03 | 80 | 1012.4 |
| 20260504174426 | 13 | 307 | 3.2 | 4.8 | 0.00 | 0.03 | 0.03 | 84 | 1012.4 |
| 20260504174421 | 13 | 307 | 3.2 | 4.8 | 0.00 | 0.03 | 0.03 | 84 | 1012.4 |
| 20260504173921 | 13 | 303 | 1.6 | 6.4 | 0.00 | 0.03 | 0.03 | 82 | 1012.4 |
| 20260504173421 | 13 | 322 | 3.2 | 3.2 | 0.00 | 0.03 | 0.03 | 80 | 1012.3 |
| 20260504172921 | 14 | 201 | 0.0 | 0.0 | 0.00 | 0.03 | 0.03 | 79 | 1012.4 |
| 20260504172421 | 14 | 201 | 0.0 | 0.0 | 0.00 | 0.03 | 0.03 | 80 | 1012.4 |
| 20260504171921 | 14 | 201 | 0.0 | 0.0 | 0.00 | 0.03 | 0.03 | 80 | 1012.4 |
| 20260504171424 | 14 | 216 | 0.0 | 1.6 | 0.00 | 0.03 | 0.03 | 80 | 1012.4 |
| 20260504171421 | 14 | 216 | 0.0 | 1.6 | 0.00 | 0.03 | 0.03 | 80 | 1012.4 |
| 20260504170921 | 14 | 196 | 1.6 | 1.6 | 0.00 | 0.03 | 0.03 | 80 | 1012.5 |
| 20260504170421 | 14 | 147 | 0.0 | 0.0 | 0.03 | 0.03 | 0.03 | 80 | 1012.5 |
| 20260504160421 | 14 | 213 | 0.0 | 0.0 | 0.00 | 0.00 | 0.00 | 78 | 1013.2 |